createdAt,value
2016-09-15T04:19:20.047Z,0
2016-09-15T04:20:20.683Z,0
2016-09-15T04:21:21.335Z,0
2016-09-15T04:22:21.961Z,0
2016-09-15T04:23:22.684Z,0
2016-09-15T04:24:23.343Z,0
2016-09-15T04:25:23.961Z,0
2016-09-15T04:26:24.593Z,0
2016-09-15T04:27:25.236Z,0
2016-09-15T04:28:25.875Z,0
2016-09-15T04:29:26.525Z,0
2016-09-15T04:30:27.290Z,0
2016-09-15T04:31:27.941Z,0
2016-09-15T04:32:28.578Z,0
2016-09-15T04:33:29.222Z,0
2016-09-15T04:34:29.865Z,0
2016-09-15T04:35:30.511Z,0
2016-09-15T04:36:31.145Z,0
2016-09-15T04:37:31.801Z,0
2016-09-15T04:38:32.469Z,0
2016-09-15T04:39:33.115Z,0
2016-09-15T04:40:34.656Z,0
2016-09-15T04:41:35.261Z,0
2016-09-15T04:42:35.918Z,0
2016-09-15T04:43:36.552Z,0
2016-09-15T04:44:37.183Z,0
2016-09-15T04:45:37.881Z,0
2016-09-15T04:46:38.523Z,0
2016-09-15T04:47:39.168Z,5
2016-09-15T04:48:40.365Z,5
2016-09-15T04:49:41.026Z,5
2016-09-15T04:50:41.702Z,5
2016-09-15T04:51:42.329Z,5
2016-09-15T04:52:42.961Z,5
2016-09-15T04:53:43.607Z,5
2016-09-15T04:54:44.242Z,5
2016-09-15T04:55:44.888Z,10
2016-09-15T04:56:45.529Z,10
2016-09-15T04:57:46.256Z,10
2016-09-15T04:58:46.961Z,10
2016-09-15T04:59:47.623Z,10
2016-09-15T05:00:48.268Z,15
2016-09-15T05:01:48.944Z,15
2016-09-15T05:02:49.567Z,15
2016-09-15T05:03:50.195Z,15
2016-09-15T05:04:50.843Z,15
2016-09-15T05:05:51.492Z,20
2016-09-15T05:06:52.145Z,20
2016-09-15T05:07:52.798Z,20
2016-09-15T05:08:53.460Z,20
2016-09-15T05:09:54.112Z,25
2016-09-15T05:10:54.736Z,25
2016-09-15T05:11:55.371Z,25
2016-09-15T05:12:56.053Z,25
2016-09-15T05:13:56.696Z,30
2016-09-15T05:14:57.347Z,30
2016-09-15T05:15:58.002Z,30
2016-09-15T05:16:58.649Z,30
2016-09-15T05:17:59.282Z,35
2016-09-15T05:18:59.916Z,35
2016-09-15T05:20:00.544Z,35
2016-09-15T05:21:01.223Z,35
2016-09-15T05:22:01.848Z,40
2016-09-15T05:23:02.488Z,40
2016-09-15T05:24:03.129Z,40
2016-09-15T05:25:03.775Z,45
2016-09-15T05:26:04.411Z,45
2016-09-15T05:27:05.031Z,45
2016-09-15T05:28:05.697Z,45
2016-09-15T05:29:06.319Z,50
2016-09-15T05:30:06.984Z,50
2016-09-15T05:31:07.618Z,50
2016-09-15T05:32:08.270Z,55
2016-09-15T05:33:08.920Z,55
2016-09-15T05:34:09.578Z,55
2016-09-15T05:35:10.258Z,55
2016-09-15T05:36:10.890Z,60
2016-09-15T05:37:11.543Z,60
2016-09-15T05:38:12.173Z,60
2016-09-15T05:39:12.797Z,65
2016-09-15T05:40:13.446Z,65
2016-09-15T05:41:14.097Z,65
2016-09-15T05:42:14.746Z,70
2016-09-15T05:43:15.375Z,70
2016-09-15T05:44:16.024Z,70
2016-09-15T05:45:16.665Z,75
2016-09-15T05:46:17.317Z,75
2016-09-15T05:47:17.950Z,75
2016-09-15T05:48:18.587Z,75
2016-09-15T05:49:19.250Z,80
2016-09-15T05:50:19.871Z,80
2016-09-15T05:51:20.502Z,85
2016-09-15T05:52:21.127Z,85
2016-09-15T05:53:21.755Z,85
2016-09-15T05:54:22.399Z,85
2016-09-15T05:55:23.033Z,90
2016-09-15T05:56:23.681Z,90
2016-09-15T05:57:24.314Z,90
2016-09-15T05:58:25.032Z,95
2016-09-15T05:59:25.719Z,95
2016-09-15T06:00:26.340Z,100
2016-09-15T06:01:27.033Z,95
2016-09-15T06:02:27.677Z,100
2016-09-15T06:03:28.306Z,100
2016-09-15T06:04:28.978Z,105
2016-09-15T06:05:29.633Z,105
2016-09-15T06:06:30.315Z,110
2016-09-15T06:07:30.986Z,110
2016-09-15T06:08:31.663Z,110
2016-09-15T06:09:32.304Z,115
2016-09-15T06:10:32.943Z,120
2016-09-15T06:11:33.617Z,120
2016-09-15T06:12:34.261Z,120
2016-09-15T06:13:34.908Z,125
2016-09-15T06:14:35.573Z,125
2016-09-15T06:15:36.184Z,130
2016-09-15T06:16:36.826Z,130
2016-09-15T06:17:37.463Z,135
2016-09-15T06:18:38.184Z,245
2016-09-15T06:19:38.826Z,290
2016-09-15T06:20:39.500Z,250
2016-09-15T06:21:40.170Z,255
2016-09-15T06:22:40.811Z,175
2016-09-15T06:23:41.469Z,180
2016-09-15T06:24:42.145Z,135
2016-09-15T06:25:42.816Z,135
2016-09-15T06:26:43.461Z,135
2016-09-15T06:27:44.138Z,145
2016-09-15T06:28:44.783Z,155
2016-09-15T06:29:45.421Z,155
2016-09-15T06:30:46.091Z,170
2016-09-15T06:31:46.745Z,175
2016-09-15T06:32:47.382Z,155
2016-09-15T06:33:48.036Z,155
2016-09-15T06:34:48.665Z,155
2016-09-15T06:35:49.338Z,170
2016-09-15T06:36:49.981Z,255
2016-09-15T06:37:50.625Z,310
2016-09-15T06:38:51.260Z,305
2016-09-15T06:39:51.908Z,510
2016-09-15T06:40:52.563Z,840
2016-09-15T06:41:53.216Z,1035
2016-09-15T06:42:53.856Z,1095
2016-09-15T06:43:54.501Z,1135
2016-09-15T06:44:55.150Z,1160
2016-09-15T06:45:55.799Z,1175
2016-09-15T06:46:56.435Z,1185
2016-09-15T06:47:57.085Z,1195
2016-09-15T06:48:57.762Z,1220
2016-09-15T06:49:58.430Z,1265
2016-09-15T06:50:59.061Z,1310
2016-09-15T06:51:59.702Z,1335
2016-09-15T06:53:00.360Z,1340
2016-09-15T06:54:00.988Z,1340
2016-09-15T06:55:01.630Z,1335
2016-09-15T06:56:02.290Z,1320
2016-09-15T06:57:02.957Z,1320
2016-09-15T06:58:03.602Z,1345
2016-09-15T06:59:04.263Z,1385
2016-09-15T07:00:04.930Z,1385
2016-09-15T07:01:05.633Z,1370
2016-09-15T07:02:06.267Z,1365
2016-09-15T07:03:06.936Z,1355
2016-09-15T07:04:07.598Z,1340
2016-09-15T07:05:08.255Z,1350
2016-09-15T07:06:08.923Z,1395
2016-09-15T07:07:09.586Z,1455
2016-09-15T07:08:10.276Z,1485
2016-09-15T07:09:10.941Z,1525
2016-09-15T07:10:11.618Z,1535
2016-09-15T07:11:12.266Z,1505
2016-09-15T07:12:12.954Z,1485
2016-09-15T07:13:13.627Z,1445
2016-09-15T07:14:14.311Z,1440
2016-09-15T07:15:14.972Z,1465
2016-09-15T07:16:15.632Z,1510
2016-09-15T07:17:16.287Z,1575
2016-09-15T07:18:16.935Z,1630
2016-09-15T07:19:17.580Z,1680
2016-09-15T07:20:18.237Z,1730
2016-09-15T07:21:18.899Z,1750
2016-09-15T07:22:19.584Z,1760
2016-09-15T07:23:20.242Z,1750
2016-09-15T07:24:20.921Z,1750
2016-09-15T07:25:21.592Z,1735
2016-09-15T07:26:22.269Z,1720
2016-09-15T07:27:22.931Z,1695
2016-09-15T07:28:23.593Z,1655
2016-09-15T07:29:24.245Z,1605
2016-09-15T07:30:24.904Z,1545
2016-09-15T07:31:25.579Z,1470
2016-09-15T07:32:26.241Z,1425
2016-09-15T07:33:26.922Z,1415
2016-09-15T07:34:27.589Z,1410
2016-09-15T07:35:28.231Z,1405
2016-09-15T07:36:28.900Z,1415
2016-09-15T07:37:29.573Z,1420
2016-09-15T07:38:30.237Z,1405
2016-09-15T07:39:30.895Z,1370
2016-09-15T07:40:31.563Z,1360
2016-09-15T07:41:32.203Z,1370
2016-09-15T07:42:32.853Z,1375
2016-09-15T07:43:33.544Z,1380
2016-09-15T07:44:34.235Z,1370
2016-09-15T07:45:34.896Z,1375
2016-09-15T07:46:35.572Z,1375
2016-09-15T07:47:36.236Z,1355
2016-09-15T07:48:36.887Z,1340
2016-09-15T07:49:37.563Z,1335
2016-09-15T07:50:38.235Z,1340
2016-09-15T07:51:38.904Z,1325
2016-09-15T07:52:39.570Z,1340
2016-09-15T07:53:40.231Z,1375
2016-09-15T07:54:40.881Z,1435
2016-09-15T07:55:41.550Z,1500
2016-09-15T07:56:42.201Z,1565
2016-09-15T07:57:42.851Z,1630
2016-09-15T07:58:43.503Z,1685
2016-09-15T07:59:44.170Z,1730
2016-09-15T08:00:44.817Z,1760
2016-09-15T08:01:45.465Z,1775
2016-09-15T08:02:46.163Z,1800
2016-09-15T08:03:46.825Z,1805
2016-09-15T08:04:47.484Z,1800
2016-09-15T08:05:48.153Z,1790
2016-09-15T08:06:48.805Z,1795
2016-09-15T08:07:49.459Z,1795
2016-09-15T08:08:50.125Z,1775
2016-09-15T08:09:50.787Z,1765
2016-09-15T08:10:51.436Z,1775
2016-09-15T08:11:52.109Z,1810
2016-09-15T08:12:52.753Z,1835
2016-09-15T08:13:53.427Z,1825
2016-09-15T08:14:54.100Z,1835
2016-09-15T08:15:54.759Z,1860
2016-09-15T08:16:55.439Z,1850
2016-09-15T08:17:56.120Z,1835
2016-09-15T08:18:56.785Z,1855
2016-09-15T08:19:57.457Z,1885
2016-09-15T08:20:58.133Z,1900
2016-09-15T08:21:58.787Z,1910
2016-09-15T08:22:59.441Z,1940
2016-09-15T08:24:00.100Z,1985
2016-09-15T08:25:00.759Z,2000
2016-09-15T08:26:01.477Z,1965
2016-09-15T08:27:02.248Z,1915
2016-09-15T08:28:02.915Z,1895
2016-09-15T08:29:03.623Z,1895
2016-09-15T08:30:04.309Z,1920
2016-09-15T08:31:04.982Z,1935
2016-09-15T08:32:05.635Z,1975
2016-09-15T08:33:06.301Z,2045
2016-09-15T08:34:06.969Z,2095
2016-09-15T08:35:07.657Z,2150
2016-09-15T08:36:08.319Z,2150
2016-09-15T08:37:08.994Z,2155
2016-09-15T08:38:09.645Z,2185
2016-09-15T08:39:10.308Z,2210
2016-09-15T08:40:10.961Z,2210
2016-09-15T08:41:11.625Z,2170
2016-09-15T08:42:12.275Z,2150
2016-09-15T08:43:12.927Z,2105
2016-09-15T08:44:13.582Z,2070
2016-09-15T08:45:14.231Z,2015
2016-09-15T08:46:14.900Z,1985
2016-09-15T08:47:15.556Z,1955
2016-09-15T08:48:16.212Z,1940
2016-09-15T08:49:16.907Z,1960
2016-09-15T08:50:17.564Z,2015
2016-09-15T08:51:18.218Z,2045
2016-09-15T08:52:18.883Z,2095
2016-09-15T08:53:19.555Z,2150
2016-09-15T08:54:20.212Z,2200
2016-09-15T08:55:21.108Z,2255
2016-09-15T08:56:21.858Z,2250
2016-09-15T08:57:22.637Z,2215
2016-09-15T08:58:23.340Z,2160
2016-09-15T08:59:23.999Z,2105
2016-09-15T09:00:24.654Z,2055
2016-09-15T09:01:25.313Z,2025
2016-09-15T09:02:25.984Z,2020
2016-09-15T09:03:26.646Z,2050
2016-09-15T09:04:27.311Z,2095
2016-09-15T09:05:27.968Z,1765
2016-09-15T09:06:28.623Z,1135
2016-09-15T09:07:29.277Z,1125
2016-09-15T09:08:29.926Z,980
2016-09-15T09:09:30.590Z,935
2016-09-15T09:10:31.249Z,525
2016-09-15T09:11:31.943Z,205
2016-09-15T09:12:32.605Z,205
2016-09-15T09:13:33.271Z,200
2016-09-15T09:14:33.934Z,200
2016-09-15T09:15:34.602Z,200
2016-09-15T09:16:35.238Z,200
2016-09-15T09:17:35.910Z,200
2016-09-15T09:18:36.554Z,200
2016-09-15T09:19:37.207Z,925
2016-09-15T09:20:37.882Z,2145
2016-09-15T09:21:38.566Z,1915
2016-09-15T09:22:39.229Z,655
2016-09-15T09:23:39.865Z,200
2016-09-15T09:24:40.525Z,195
2016-09-15T09:25:41.194Z,195
2016-09-15T09:26:41.864Z,195
2016-09-15T09:27:42.520Z,195
2016-09-15T09:28:43.170Z,195
2016-09-15T09:29:43.805Z,190
2016-09-15T09:30:44.564Z,195
2016-09-15T09:31:45.239Z,195
2016-09-15T09:32:45.944Z,195
2016-09-15T09:33:46.589Z,195
2016-09-15T09:34:47.349Z,195
2016-09-15T09:35:48.074Z,195
2016-09-15T09:36:48.741Z,195
2016-09-15T09:37:49.390Z,195
2016-09-15T09:38:50.051Z,190
2016-09-15T09:39:50.702Z,195
2016-09-15T09:40:51.350Z,195
2016-09-15T09:41:52.019Z,190
2016-09-15T09:42:52.690Z,195
2016-09-15T09:43:53.334Z,190
2016-09-15T09:44:54.073Z,190
2016-09-15T09:45:54.735Z,190
2016-09-15T09:46:55.393Z,185
2016-09-15T09:47:56.040Z,190
2016-09-15T09:48:56.699Z,185
2016-09-15T09:49:57.350Z,190
2016-09-15T09:50:58.001Z,185
2016-09-15T09:51:58.659Z,185
2016-09-15T09:52:59.335Z,185
2016-09-15T09:53:59.981Z,180
2016-09-15T09:55:00.627Z,180
2016-09-15T09:56:01.270Z,180
2016-09-15T09:57:01.928Z,180
2016-09-15T09:58:02.571Z,185
2016-09-15T09:59:03.282Z,175
2016-09-15T10:00:03.932Z,180
2016-09-15T10:01:04.577Z,180
2016-09-15T10:02:05.229Z,180
2016-09-15T10:03:05.884Z,175
2016-09-15T10:04:06.541Z,175
2016-09-15T10:05:07.198Z,175
2016-09-15T10:06:07.851Z,175
2016-09-15T10:07:08.514Z,175
2016-09-15T10:08:09.150Z,175
2016-09-15T10:09:09.796Z,175
2016-09-15T10:10:10.443Z,170
2016-09-15T10:11:11.090Z,170
2016-09-15T10:12:11.738Z,170
2016-09-15T10:13:12.389Z,170
2016-09-15T10:14:13.057Z,170
2016-09-15T10:15:13.717Z,175
2016-09-15T10:16:14.367Z,170
2016-09-15T10:17:15.010Z,170
2016-09-15T10:18:15.667Z,165
2016-09-15T10:19:16.344Z,170
2016-09-15T10:20:17.013Z,165
2016-09-15T10:21:17.688Z,165
2016-09-15T10:22:18.336Z,170
2016-09-15T10:23:18.986Z,165
2016-09-15T10:24:19.646Z,165
2016-09-15T10:25:20.289Z,165
2016-09-15T10:26:20.945Z,165
2016-09-15T10:27:21.603Z,165
2016-09-15T10:28:22.238Z,165
2016-09-15T10:29:22.870Z,165
2016-09-15T10:30:23.525Z,165
2016-09-15T10:31:24.162Z,165
2016-09-15T10:32:24.820Z,165
2016-09-15T10:33:25.465Z,160
2016-09-15T10:34:26.113Z,160
2016-09-15T10:35:26.787Z,160
2016-09-15T10:36:28.406Z,155
2016-09-15T10:37:29.056Z,155
2016-09-15T10:38:29.726Z,155
2016-09-15T10:39:30.371Z,160
2016-09-15T10:40:31.071Z,160
2016-09-15T10:41:31.744Z,160
2016-09-15T10:42:32.405Z,160
2016-09-15T10:43:33.062Z,160
2016-09-15T10:44:33.722Z,160
2016-09-15T10:45:34.385Z,155
2016-09-15T10:46:35.052Z,155
2016-09-15T10:47:35.691Z,155
2016-09-15T10:48:36.355Z,155
2016-09-15T10:49:36.996Z,155
2016-09-15T10:50:37.646Z,150
2016-09-15T10:51:38.317Z,150
2016-09-15T10:52:38.991Z,150
2016-09-15T10:53:39.653Z,150
2016-09-15T10:54:40.322Z,150
2016-09-15T10:55:41.016Z,150
2016-09-15T10:56:41.659Z,150
2016-09-15T10:57:42.298Z,145
2016-09-15T10:58:42.969Z,145
2016-09-15T10:59:43.634Z,145
2016-09-15T11:00:44.290Z,145
2016-09-15T11:01:44.992Z,150
2016-09-15T11:02:45.676Z,145
2016-09-15T11:03:46.323Z,145
2016-09-15T11:04:46.999Z,145
2016-09-15T11:05:47.640Z,145
2016-09-15T11:06:48.290Z,145
2016-09-15T11:07:48.951Z,140
2016-09-15T11:08:49.596Z,140
2016-09-15T11:09:50.259Z,145
2016-09-15T11:10:50.941Z,140
2016-09-15T11:11:51.574Z,140
2016-09-15T11:12:52.221Z,140
2016-09-15T11:13:52.863Z,140
2016-09-15T11:14:53.527Z,145
2016-09-15T11:15:54.179Z,140
2016-09-15T11:16:54.824Z,135
2016-09-15T11:17:55.488Z,140
2016-09-15T11:18:56.139Z,135
2016-09-15T11:19:56.805Z,135
2016-09-15T11:20:57.457Z,140
2016-09-15T11:21:58.095Z,135
2016-09-15T11:22:58.784Z,140
2016-09-15T11:23:59.441Z,135
2016-09-15T11:25:00.098Z,135
2016-09-15T11:26:00.744Z,135
2016-09-15T11:27:01.388Z,135
2016-09-15T11:28:02.037Z,135
2016-09-15T11:29:02.716Z,135
2016-09-15T11:30:03.364Z,135
2016-09-15T11:31:04.055Z,135
2016-09-15T11:32:04.675Z,135
2016-09-15T11:33:05.325Z,135
2016-09-15T11:34:05.980Z,135
2016-09-15T11:35:06.642Z,135
2016-09-15T11:36:07.317Z,135
2016-09-15T11:37:07.976Z,135
2016-09-15T11:38:08.627Z,135
2016-09-15T11:39:09.301Z,135
2016-09-15T11:40:09.955Z,135
2016-09-15T11:41:10.604Z,135
2016-09-15T11:42:11.249Z,135
2016-09-15T11:43:11.901Z,135
2016-09-15T11:44:12.565Z,135
2016-09-15T11:45:13.206Z,130
2016-09-15T11:46:13.867Z,135
2016-09-15T11:47:14.545Z,135
2016-09-15T11:48:15.196Z,130
2016-09-15T11:49:15.847Z,130
2016-09-15T11:50:16.499Z,130
2016-09-15T11:51:17.144Z,130
2016-09-15T11:52:17.799Z,135
2016-09-15T11:53:18.452Z,130
2016-09-15T11:54:19.106Z,130
2016-09-15T11:55:19.753Z,130
2016-09-15T11:56:20.400Z,135
2016-09-15T11:57:21.053Z,130
2016-09-15T11:58:21.715Z,135
2016-09-15T11:59:22.395Z,130
2016-09-15T12:00:23.059Z,130
2016-09-15T12:01:23.728Z,130
2016-09-15T12:02:24.381Z,130
2016-09-15T12:03:25.046Z,130
2016-09-15T12:04:25.710Z,125
2016-09-15T12:05:26.392Z,125
2016-09-15T12:06:27.055Z,125
2016-09-15T12:07:27.731Z,125
2016-09-15T12:08:28.387Z,125
2016-09-15T12:09:29.028Z,125
2016-09-15T12:10:29.672Z,125
2016-09-15T12:11:30.316Z,125
2016-09-15T12:12:30.957Z,125
2016-09-15T12:13:31.603Z,125
2016-09-15T12:14:32.245Z,125
2016-09-15T12:15:32.902Z,125
2016-09-15T12:16:33.566Z,125
2016-09-15T12:17:34.234Z,125
2016-09-15T12:18:34.881Z,120
2016-09-15T12:19:35.538Z,125
2016-09-15T12:20:36.198Z,120
2016-09-15T12:21:36.851Z,120
2016-09-15T12:22:37.501Z,125
2016-09-15T12:23:38.162Z,120
2016-09-15T12:24:38.823Z,120
2016-09-15T12:25:39.472Z,120
2016-09-15T12:26:40.142Z,120
2016-09-15T12:27:40.785Z,120
2016-09-15T12:28:41.447Z,120
2016-09-15T12:29:42.106Z,120
2016-09-15T12:30:42.756Z,120
2016-09-15T12:31:43.398Z,115
2016-09-15T12:32:44.071Z,120
2016-09-15T12:33:44.711Z,120
2016-09-15T12:34:45.384Z,115
2016-09-15T12:35:46.038Z,115
2016-09-15T12:36:46.702Z,115
2016-09-15T12:37:47.376Z,115
2016-09-15T12:38:48.031Z,115
2016-09-15T12:39:48.670Z,115
2016-09-15T12:40:49.315Z,115
2016-09-15T12:41:49.972Z,115
2016-09-15T12:42:50.616Z,115
2016-09-15T12:43:51.277Z,115
2016-09-15T12:44:51.919Z,115
2016-09-15T12:45:52.560Z,115
2016-09-15T12:46:53.200Z,115
2016-09-15T12:47:53.871Z,115
2016-09-15T12:48:54.529Z,115
2016-09-15T12:49:55.185Z,115
2016-09-15T12:50:55.829Z,115
2016-09-15T12:51:56.493Z,115
2016-09-15T12:52:57.153Z,110
2016-09-15T12:53:57.805Z,110
2016-09-15T12:54:58.461Z,110
2016-09-15T12:55:59.107Z,110
2016-09-15T12:56:59.740Z,110
2016-09-15T12:58:00.380Z,110
2016-09-15T12:59:01.033Z,110
2016-09-15T13:00:01.685Z,110
2016-09-15T13:01:02.327Z,110
2016-09-15T13:02:02.976Z,110
2016-09-15T13:03:03.614Z,110
2016-09-15T13:04:04.281Z,110
2016-09-15T13:05:04.971Z,110
2016-09-15T13:06:05.630Z,110
2016-09-15T13:07:06.289Z,110
2016-09-15T13:08:06.941Z,110
2016-09-15T13:09:07.615Z,110
2016-09-15T13:10:08.261Z,110
2016-09-15T13:11:08.906Z,110
2016-09-15T13:12:09.558Z,110
2016-09-15T13:13:10.225Z,110
2016-09-15T13:14:10.868Z,110
2016-09-15T13:15:11.531Z,110
2016-09-15T13:16:12.192Z,105
2016-09-15T13:17:12.838Z,105
2016-09-15T13:18:13.497Z,110
2016-09-15T13:19:14.127Z,105
2016-09-15T13:20:14.777Z,105
2016-09-15T13:21:15.440Z,105
2016-09-15T13:22:16.092Z,105
2016-09-15T13:23:16.760Z,105
2016-09-15T13:24:17.412Z,105
2016-09-15T13:25:18.055Z,105
2016-09-15T13:26:18.708Z,105
2016-09-15T13:27:19.350Z,105
2016-09-15T13:28:19.999Z,105
2016-09-15T13:29:20.630Z,105
2016-09-15T13:30:21.273Z,105
2016-09-15T13:31:21.930Z,105
2016-09-15T13:32:22.596Z,105
2016-09-15T13:33:23.240Z,105
2016-09-15T13:34:23.889Z,105
2016-09-15T13:35:24.527Z,105
2016-09-15T13:36:25.171Z,105
2016-09-15T13:37:25.833Z,105
2016-09-15T13:38:26.470Z,105
2016-09-15T13:39:27.112Z,105
2016-09-15T13:40:27.753Z,105
2016-09-15T13:41:28.400Z,105
2016-09-15T13:42:29.061Z,100
2016-09-15T13:43:29.711Z,100
2016-09-15T13:44:30.392Z,100
2016-09-15T13:45:31.065Z,100
2016-09-15T13:46:31.698Z,100
2016-09-15T13:47:32.330Z,100
2016-09-15T13:48:32.994Z,100
2016-09-15T13:49:33.648Z,100
2016-09-15T13:50:34.298Z,100
2016-09-15T13:51:34.954Z,100
2016-09-15T13:52:35.637Z,100
2016-09-15T13:53:36.290Z,100
2016-09-15T13:54:36.960Z,100
2016-09-15T13:55:37.608Z,100
2016-09-15T13:56:38.260Z,100
2016-09-15T13:57:38.930Z,100
2016-09-15T13:58:39.586Z,100
2016-09-15T13:59:40.240Z,100
2016-09-15T14:00:40.896Z,100
2016-09-15T14:01:41.535Z,100
2016-09-15T14:02:42.184Z,100
2016-09-15T14:03:42.866Z,100
2016-09-15T14:04:43.529Z,100
2016-09-15T14:05:44.166Z,95
2016-09-15T14:06:44.805Z,95
2016-09-15T14:07:45.451Z,95
2016-09-15T14:08:46.120Z,95
2016-09-15T14:09:46.763Z,95
2016-09-15T14:10:47.412Z,95
2016-09-15T14:11:48.065Z,95
2016-09-15T14:12:48.715Z,95
2016-09-15T14:13:49.375Z,95
2016-09-15T14:14:50.016Z,95
2016-09-15T14:15:50.669Z,95
2016-09-15T14:16:51.336Z,95
2016-09-15T14:17:51.974Z,95
2016-09-15T14:18:52.631Z,95
2016-09-15T14:19:53.298Z,95
2016-09-15T14:20:53.947Z,95
2016-09-15T14:21:54.601Z,95
2016-09-15T14:22:55.240Z,95
2016-09-15T14:23:55.907Z,95
2016-09-15T14:24:56.549Z,90
2016-09-15T14:25:57.192Z,90
2016-09-15T14:26:57.854Z,95
2016-09-15T14:27:58.497Z,95
2016-09-15T14:28:59.237Z,90
2016-09-15T14:29:59.920Z,90
2016-09-15T14:31:00.599Z,90
2016-09-15T14:32:01.263Z,90
2016-09-15T14:33:01.952Z,90
2016-09-15T14:34:02.605Z,90
2016-09-15T14:35:03.255Z,90
2016-09-15T14:36:03.913Z,90
2016-09-15T14:37:04.592Z,90
2016-09-15T14:38:05.254Z,90
2016-09-15T14:39:05.900Z,90
2016-09-15T14:40:06.559Z,90
2016-09-15T14:41:07.207Z,90
2016-09-15T14:42:07.852Z,90
2016-09-15T14:43:08.499Z,90
2016-09-15T14:44:09.166Z,90
2016-09-15T14:45:09.818Z,90
2016-09-15T14:46:10.466Z,90
2016-09-15T14:47:11.113Z,90
2016-09-15T14:48:11.745Z,85
2016-09-15T14:49:12.393Z,85
2016-09-15T14:50:13.042Z,90
2016-09-15T14:51:13.690Z,90
2016-09-15T14:52:14.340Z,85
2016-09-15T14:53:14.992Z,85
2016-09-15T14:54:15.651Z,85
2016-09-15T14:55:16.333Z,85
2016-09-15T14:56:17.023Z,85
2016-09-15T14:57:17.701Z,85
2016-09-15T14:58:18.336Z,85
2016-09-15T14:59:18.974Z,85
2016-09-15T15:00:19.611Z,85
2016-09-15T15:01:20.267Z,85
2016-09-15T15:02:20.960Z,85
2016-09-15T15:03:21.632Z,85
2016-09-15T15:04:22.297Z,85
2016-09-15T15:05:22.923Z,85
2016-09-15T15:06:23.569Z,85
2016-09-15T15:07:24.248Z,85
2016-09-15T15:08:25.043Z,85
2016-09-15T15:09:25.662Z,85
2016-09-15T15:10:26.306Z,85
2016-09-15T15:11:26.950Z,80
2016-09-15T15:12:27.637Z,80
2016-09-15T15:13:28.346Z,80
2016-09-15T15:14:29.008Z,80
2016-09-15T15:15:29.639Z,85
2016-09-15T15:16:30.351Z,80
2016-09-15T15:17:31.048Z,80
2016-09-15T15:18:31.703Z,80
2016-09-15T15:19:32.409Z,80
2016-09-15T15:20:33.062Z,80
2016-09-15T15:21:33.784Z,80
2016-09-15T15:22:34.444Z,80
2016-09-15T15:23:35.120Z,80
2016-09-15T15:24:35.791Z,80
2016-09-15T15:25:36.476Z,80
2016-09-15T15:26:37.143Z,80
2016-09-15T15:27:37.767Z,80
2016-09-15T15:28:38.480Z,75
2016-09-15T15:29:39.316Z,75
2016-09-15T15:30:39.977Z,75
2016-09-15T15:31:40.703Z,75
2016-09-15T15:32:41.371Z,80
2016-09-15T15:33:42.125Z,75
2016-09-15T15:34:42.902Z,75
2016-09-15T15:35:43.608Z,75
2016-09-15T15:36:44.281Z,75
2016-09-15T15:37:45.685Z,75
2016-09-15T15:38:46.342Z,75
2016-09-15T15:39:47.371Z,75
2016-09-15T15:40:48.145Z,75
2016-09-15T15:41:49.160Z,75
2016-09-15T15:42:50.473Z,75
2016-09-15T15:43:51.781Z,75
2016-09-15T15:44:52.476Z,75
2016-09-15T15:45:53.143Z,75
2016-09-15T15:46:53.833Z,75
2016-09-15T15:47:54.515Z,75
2016-09-15T15:48:55.183Z,70
2016-09-15T15:49:55.822Z,70
2016-09-15T15:50:56.463Z,70
2016-09-15T15:51:57.118Z,70
2016-09-15T15:52:57.778Z,70
2016-09-15T15:53:58.430Z,70
2016-09-15T15:54:59.090Z,70
2016-09-15T15:55:59.771Z,70
2016-09-15T15:57:00.413Z,70
2016-09-15T15:58:01.078Z,70
2016-09-15T15:59:01.732Z,70
2016-09-15T16:00:02.396Z,70
2016-09-15T16:01:03.068Z,70
2016-09-15T16:02:03.715Z,65
2016-09-15T16:03:04.366Z,65
2016-09-15T16:04:05.017Z,70
2016-09-15T16:05:05.700Z,65
2016-09-15T16:06:06.330Z,65
2016-09-15T16:07:06.973Z,65
2016-09-15T16:08:07.618Z,65
2016-09-15T16:09:08.286Z,65
2016-09-15T16:10:08.929Z,65
2016-09-15T16:11:10.426Z,65
2016-09-15T16:12:11.084Z,65
2016-09-15T16:13:11.749Z,65
2016-09-15T16:14:12.454Z,65
2016-09-15T16:15:13.117Z,60
2016-09-15T16:16:13.759Z,60
2016-09-15T16:17:14.411Z,60
2016-09-15T16:18:15.249Z,60
2016-09-15T16:19:15.935Z,60
2016-09-15T16:20:16.567Z,60
2016-09-15T16:21:17.210Z,60
2016-09-15T16:22:17.923Z,60
2016-09-15T16:23:18.609Z,60
2016-09-15T16:24:19.267Z,60
2016-09-15T16:25:19.950Z,55
2016-09-15T16:26:20.601Z,55
2016-09-15T16:27:21.269Z,55
2016-09-15T16:28:21.933Z,55
2016-09-15T16:29:22.578Z,55
2016-09-15T16:30:23.226Z,55
2016-09-15T16:31:23.889Z,55
2016-09-15T16:32:24.533Z,55
2016-09-15T16:33:25.199Z,55
2016-09-15T16:34:25.848Z,50
2016-09-15T16:35:26.503Z,50
2016-09-15T16:36:27.159Z,50
2016-09-15T16:37:27.788Z,50
2016-09-15T16:38:28.439Z,50
2016-09-15T16:39:29.115Z,50
2016-09-15T16:40:29.780Z,50
2016-09-15T16:41:30.444Z,50
2016-09-15T16:42:31.081Z,50
2016-09-15T16:43:31.752Z,45
2016-09-15T16:44:32.402Z,45
2016-09-15T16:45:33.071Z,45
2016-09-15T16:46:33.714Z,45
2016-09-15T16:47:34.354Z,45
2016-09-15T16:48:35.008Z,45
2016-09-15T16:49:35.688Z,40
2016-09-15T16:50:36.344Z,40
2016-09-15T16:51:36.998Z,40
2016-09-15T16:52:37.652Z,40
2016-09-15T16:53:38.317Z,40
2016-09-15T16:54:38.963Z,40
2016-09-15T16:55:39.616Z,40
2016-09-15T16:56:40.283Z,35
2016-09-15T16:57:40.944Z,35
2016-09-15T16:58:41.580Z,35
2016-09-15T16:59:42.254Z,35
2016-09-15T17:00:42.944Z,35
2016-09-15T17:01:43.610Z,35
2016-09-15T17:02:44.259Z,30
2016-09-15T17:03:44.914Z,30
2016-09-15T17:04:45.564Z,30
2016-09-15T17:05:46.217Z,30
2016-09-15T17:06:46.887Z,30
2016-09-15T17:07:47.613Z,25
2016-09-15T17:08:48.261Z,25
2016-09-15T17:09:48.906Z,25
2016-09-15T17:10:49.599Z,25
2016-09-15T17:11:50.254Z,25
2016-09-15T17:12:50.903Z,25
2016-09-15T17:13:51.597Z,20
2016-09-15T17:14:52.262Z,20
2016-09-15T17:15:52.936Z,20
2016-09-15T17:16:53.583Z,20
2016-09-15T17:17:54.221Z,20
2016-09-15T17:18:54.907Z,15
2016-09-15T17:19:55.563Z,15
2016-09-15T17:20:56.211Z,15
2016-09-15T17:21:56.904Z,15
2016-09-15T17:22:57.801Z,15
2016-09-15T17:23:58.474Z,15
2016-09-15T17:24:59.148Z,10
2016-09-15T17:25:59.898Z,10
2016-09-15T17:27:00.537Z,10
2016-09-15T17:28:01.212Z,10
2016-09-15T17:29:01.878Z,10
2016-09-15T17:30:02.779Z,10
2016-09-15T17:31:03.707Z,5
2016-09-15T17:32:04.309Z,5
2016-09-15T17:33:04.981Z,5
2016-09-15T17:34:05.638Z,5
2016-09-15T17:35:06.300Z,5
2016-09-15T17:36:06.943Z,5
2016-09-15T17:37:07.729Z,5
2016-09-15T17:38:08.652Z,5
2016-09-15T17:39:09.391Z,0
2016-09-15T17:40:10.089Z,0
2016-09-15T17:41:10.805Z,0
2016-09-15T17:42:11.452Z,0
2016-09-15T17:43:12.261Z,0
2016-09-15T17:44:12.945Z,0
2016-09-15T17:45:13.775Z,0
2016-09-15T17:46:14.488Z,0
2016-09-15T17:47:15.049Z,0
2016-09-15T17:48:15.870Z,0
2016-09-15T17:49:16.680Z,0
2016-09-15T17:50:17.421Z,0
2016-09-15T17:51:18.074Z,0
2016-09-15T17:52:18.784Z,0
2016-09-15T17:53:19.428Z,0
2016-09-15T17:54:20.089Z,0
2016-09-15T17:55:20.765Z,0
2016-09-15T17:56:21.409Z,0
2016-09-15T17:57:22.076Z,0
2016-09-15T17:58:23.284Z,0
2016-09-15T17:59:23.991Z,0
2016-09-15T18:00:24.665Z,0
2016-09-15T18:01:25.380Z,0
2016-09-15T18:02:26.063Z,0
2016-09-15T18:03:26.725Z,0
2016-09-15T18:04:27.426Z,0
2016-09-15T18:05:28.074Z,0
2016-09-15T18:06:28.753Z,0
2016-09-15T18:07:29.409Z,0
2016-09-15T18:08:30.050Z,0
2016-09-15T18:09:30.845Z,0
2016-09-15T18:10:31.519Z,0
2016-09-15T18:11:32.174Z,0
2016-09-15T18:12:32.890Z,0
2016-09-15T18:13:33.648Z,0
2016-09-15T18:14:34.393Z,0
2016-09-15T18:15:35.046Z,0
2016-09-15T18:16:35.815Z,0
2016-09-15T18:17:36.511Z,0
2016-09-15T18:18:37.172Z,0
2016-09-15T18:19:37.927Z,0
2016-09-15T18:20:38.559Z,0
2016-09-15T18:21:39.234Z,0
2016-09-15T18:22:39.898Z,0
2016-09-15T18:23:41.038Z,0
2016-09-15T18:24:41.715Z,0